createdAt,value
2018-09-18T00:01:05.496Z,22.42
2018-09-18T00:03:35.513Z,22.37
2018-09-18T00:06:04.913Z,22.33
2018-09-18T00:08:34.067Z,22.29
2018-09-18T00:11:03.395Z,22.26
2018-09-18T00:13:32.674Z,22.21
2018-09-18T00:16:01.905Z,22.18
2018-09-18T00:18:32.092Z,22.14
2018-09-18T00:21:01.290Z,22.09
2018-09-18T00:23:30.237Z,22.05
2018-09-18T00:25:59.611Z,22.02
2018-09-18T00:28:28.745Z,22.00
2018-09-18T00:30:57.857Z,21.97
2018-09-18T00:33:27.831Z,21.94
2018-09-18T00:35:57.040Z,21.91
2018-09-18T00:38:26.367Z,21.88
2018-09-18T00:40:55.481Z,21.84
2018-09-18T00:43:24.572Z,21.83
2018-09-18T00:45:54.540Z,21.82
2018-09-18T00:48:23.797Z,21.82
2018-09-18T00:50:52.803Z,21.81
2018-09-18T00:53:24.762Z,21.80
2018-09-18T00:55:53.939Z,21.79
2018-09-18T00:58:22.948Z,21.77
2018-09-18T01:00:51.822Z,21.76
2018-09-18T01:03:20.895Z,21.75
2018-09-18T01:05:50.117Z,21.74
2018-09-18T01:08:19.391Z,21.73
2018-09-18T01:10:48.606Z,21.74
2018-09-18T01:13:17.718Z,21.71
2018-09-18T01:15:46.823Z,21.71
2018-09-18T01:18:16.079Z,21.71
2018-09-18T01:20:45.183Z,21.68
2018-09-18T01:23:14.216Z,21.68
2018-09-18T01:25:43.605Z,21.67
2018-09-18T01:28:12.702Z,21.67
2018-09-18T01:30:41.730Z,21.64
2018-09-18T01:33:11.454Z,21.64
2018-09-18T01:35:40.719Z,21.60
2018-09-18T01:38:10.689Z,21.60
2018-09-18T01:40:40.242Z,21.56
2018-09-18T01:43:10.233Z,21.51
2018-09-18T01:45:39.415Z,21.49
2018-09-18T01:48:08.417Z,21.43
2018-09-18T01:50:37.685Z,21.41
2018-09-18T01:53:07.086Z,21.38
2018-09-18T01:55:36.112Z,21.36
2018-09-18T01:58:05.156Z,21.32
2018-09-18T02:00:34.191Z,21.30
2018-09-18T02:03:04.320Z,21.27
2018-09-18T02:05:33.404Z,21.25
2018-09-18T02:08:02.733Z,21.23
2018-09-18T02:10:31.907Z,21.22
2018-09-18T02:13:01.205Z,21.21
2018-09-18T02:15:30.395Z,21.19
2018-09-18T02:17:59.519Z,21.17
2018-09-18T02:20:28.616Z,21.16
2018-09-18T02:22:57.679Z,21.15
2018-09-18T02:25:26.752Z,21.14
2018-09-18T02:27:56.087Z,21.11
2018-09-18T02:30:25.077Z,21.10
2018-09-18T02:32:54.434Z,21.08
2018-09-18T02:35:23.997Z,21.06
2018-09-18T02:37:53.203Z,21.04
2018-09-18T02:40:22.469Z,21.02
2018-09-18T02:42:51.662Z,21.00
2018-09-18T02:45:21.238Z,20.97
2018-09-18T02:47:50.851Z,20.95
2018-09-18T02:50:20.431Z,20.91
2018-09-18T02:52:50.149Z,20.89
2018-09-18T02:55:19.242Z,20.87
2018-09-18T02:57:48.339Z,20.84
2018-09-18T03:00:17.432Z,20.83
2018-09-18T03:02:46.734Z,20.81
2018-09-18T03:05:15.740Z,20.78
2018-09-18T03:07:45.118Z,20.74
2018-09-18T03:10:14.459Z,20.71
2018-09-18T03:12:43.833Z,20.68
2018-09-18T03:15:12.960Z,20.63
2018-09-18T03:17:41.911Z,20.60
2018-09-18T03:20:10.785Z,20.58
2018-09-18T03:22:40.156Z,20.56
2018-09-18T03:25:09.337Z,20.55
2018-09-18T03:27:39.182Z,20.53
2018-09-18T03:30:08.403Z,20.51
2018-09-18T03:32:37.558Z,20.48
2018-09-18T03:35:06.707Z,20.46
2018-09-18T03:37:35.910Z,20.45
2018-09-18T03:40:05.660Z,20.45
2018-09-18T03:42:34.720Z,20.44
2018-09-18T03:45:04.185Z,20.43
2018-09-18T03:47:33.324Z,20.42
2018-09-18T03:50:02.454Z,20.41
2018-09-18T03:52:31.416Z,20.38
2018-09-18T03:55:07.747Z,20.36
2018-09-18T03:57:37.522Z,20.35
2018-09-18T04:00:06.740Z,20.34
2018-09-18T04:02:36.191Z,20.32
2018-09-18T04:05:05.072Z,20.32
2018-09-18T04:07:34.110Z,20.32
2018-09-18T04:10:03.199Z,20.29
2018-09-18T04:12:32.139Z,20.28
2018-09-18T04:15:01.461Z,20.27
2018-09-18T04:17:30.919Z,20.27
2018-09-18T04:20:00.238Z,20.25
2018-09-18T04:22:29.398Z,20.22
2018-09-18T04:24:58.533Z,20.18
2018-09-18T04:27:27.656Z,20.16
2018-09-18T04:29:56.820Z,20.10
2018-09-18T04:32:26.113Z,20.08
2018-09-18T04:34:55.219Z,20.07
2018-09-18T04:37:24.371Z,20.05
2018-09-18T04:39:54.097Z,20.02
2018-09-18T04:42:23.122Z,20.00
2018-09-18T04:44:52.566Z,19.99
2018-09-18T04:47:21.699Z,19.97
2018-09-18T04:49:50.830Z,19.97
2018-09-18T04:52:19.980Z,19.97
2018-09-18T04:54:49.278Z,19.97
2018-09-18T04:57:18.650Z,19.97
2018-09-18T04:59:47.752Z,19.98
2018-09-18T05:02:16.827Z,19.97
2018-09-18T05:04:46.629Z,19.98
2018-09-18T05:07:15.653Z,19.99
2018-09-18T05:09:45.218Z,20.00
2018-09-18T05:12:14.591Z,20.00
2018-09-18T05:14:43.880Z,19.99
2018-09-18T05:17:13.452Z,19.98
2018-09-18T05:19:42.593Z,20.01
2018-09-18T05:22:11.591Z,20.00
2018-09-18T05:24:40.601Z,19.98
2018-09-18T05:27:10.013Z,19.96
2018-09-18T05:29:39.213Z,19.96
2018-09-18T05:32:08.372Z,20.00
2018-09-18T05:34:37.802Z,20.05
2018-09-18T05:37:07.016Z,20.10
2018-09-18T05:39:36.000Z,20.14
2018-09-18T05:42:10.205Z,20.18
2018-09-18T05:44:39.557Z,20.20
2018-09-18T05:47:09.709Z,20.22
2018-09-18T05:49:38.959Z,20.23
2018-09-18T05:52:08.343Z,20.27
2018-09-18T05:54:37.493Z,20.29
2018-09-18T05:57:07.690Z,20.29
2018-09-18T05:59:36.725Z,20.30
2018-09-18T06:02:06.223Z,20.29
2018-09-18T06:04:35.315Z,20.29
2018-09-18T06:07:04.420Z,20.31
2018-09-18T06:09:33.694Z,20.33
2018-09-18T06:12:03.047Z,20.35
2018-09-18T06:14:32.182Z,20.35
2018-09-18T06:17:01.480Z,20.37
2018-09-18T06:19:30.933Z,20.38
2018-09-18T06:22:00.051Z,20.40
2018-09-18T06:24:29.330Z,20.44
2018-09-18T06:26:59.199Z,20.49
2018-09-18T06:29:31.207Z,20.52
2018-09-18T06:32:00.624Z,20.55
2018-09-18T06:34:29.786Z,20.59
2018-09-18T06:36:58.822Z,20.63
2018-09-18T06:39:28.043Z,20.66
2018-09-18T06:41:56.990Z,20.72
2018-09-18T06:44:25.979Z,20.78
2018-09-18T06:46:55.008Z,20.80
2018-09-18T06:49:24.907Z,20.80
2018-09-18T06:51:53.973Z,20.80
2018-09-18T06:54:23.102Z,20.81
2018-09-18T06:56:52.803Z,20.83
2018-09-18T06:59:22.025Z,20.85
2018-09-18T07:01:51.425Z,20.87
2018-09-18T07:04:20.593Z,20.90
2018-09-18T07:06:49.599Z,20.96
2018-09-18T07:09:18.910Z,20.99
2018-09-18T07:11:48.200Z,21.04
2018-09-18T07:14:17.421Z,21.09
2018-09-18T07:16:47.267Z,21.12
2018-09-18T07:19:17.253Z,21.17
2018-09-18T07:21:46.812Z,21.20
2018-09-18T07:24:16.016Z,21.24
2018-09-18T07:26:45.591Z,21.28
2018-09-18T07:29:14.825Z,21.34
2018-09-18T07:31:44.071Z,21.41
2018-09-18T07:34:13.510Z,21.48
2018-09-18T07:36:43.082Z,21.53
2018-09-18T07:39:12.842Z,21.60
2018-09-18T07:41:42.695Z,21.69
2018-09-18T07:44:11.962Z,21.78
2018-09-18T07:46:41.560Z,21.85
2018-09-18T07:49:10.535Z,21.93
2018-09-18T07:51:39.508Z,22.01
2018-09-18T07:54:08.788Z,22.08
2018-09-18T07:56:37.838Z,22.16
2018-09-18T07:59:07.310Z,22.26
2018-09-18T08:01:36.659Z,22.34
2018-09-18T08:04:05.949Z,22.42
2018-09-18T08:06:35.074Z,22.51
2018-09-18T08:09:05.812Z,22.60
2018-09-18T08:11:34.762Z,22.70
2018-09-18T08:14:03.926Z,22.80
2018-09-18T08:16:33.262Z,22.88
2018-09-18T08:19:02.582Z,22.99
2018-09-18T08:21:31.722Z,23.07
2018-09-18T08:24:01.333Z,23.18
2018-09-18T08:26:30.565Z,23.28
2018-09-18T08:29:00.178Z,23.38
2018-09-18T08:31:29.513Z,23.46
2018-09-18T08:33:58.571Z,23.56
2018-09-18T08:36:27.822Z,23.64
2018-09-18T08:38:57.630Z,23.72
2018-09-18T08:41:27.227Z,23.80
2018-09-18T08:43:56.379Z,23.89
2018-09-18T08:46:25.726Z,23.99
2018-09-18T08:48:55.750Z,24.11
2018-09-18T08:51:25.305Z,24.21
2018-09-18T08:53:54.677Z,24.30
2018-09-18T08:56:23.778Z,24.38
2018-09-18T08:58:52.735Z,24.49
2018-09-18T09:01:22.175Z,24.60
2018-09-18T09:03:51.368Z,24.68
2018-09-18T09:06:20.613Z,24.77
2018-09-18T09:08:50.458Z,24.88
2018-09-18T09:11:25.904Z,24.98
2018-09-18T09:13:55.401Z,25.07
2018-09-18T09:16:24.563Z,25.15
2018-09-18T09:18:53.822Z,25.26
2018-09-18T09:21:23.144Z,25.35
2018-09-18T09:23:52.446Z,25.45
2018-09-18T09:26:21.665Z,25.55
2018-09-18T09:28:50.876Z,25.64
2018-09-18T09:31:20.856Z,25.74
2018-09-18T09:33:50.196Z,25.84
2018-09-18T09:36:19.823Z,25.92
2018-09-18T09:38:49.049Z,26.00
2018-09-18T09:41:18.324Z,26.09
2018-09-18T09:43:47.574Z,26.17
2018-09-18T09:46:16.863Z,26.27
2018-09-18T09:48:45.944Z,26.36
2018-09-18T09:51:15.637Z,26.47
2018-09-18T09:53:44.920Z,26.58
2018-09-18T09:56:14.800Z,26.68
2018-09-18T09:58:43.895Z,26.76
2018-09-18T10:01:18.026Z,26.86
2018-09-18T10:03:47.499Z,26.95
2018-09-18T10:06:16.573Z,27.02
2018-09-18T10:08:45.828Z,27.09
2018-09-18T10:11:15.387Z,27.16
2018-09-18T10:13:44.507Z,27.22
2018-09-18T10:16:13.725Z,27.27
2018-09-18T10:18:43.742Z,27.33
2018-09-18T10:21:12.856Z,27.42
2018-09-18T10:23:42.003Z,27.50
2018-09-18T10:26:11.775Z,27.56
2018-09-18T10:28:41.061Z,27.61
2018-09-18T10:31:10.207Z,27.66
2018-09-18T10:33:39.586Z,27.72
2018-09-18T10:36:08.924Z,27.78
2018-09-18T10:38:38.111Z,27.85
2018-09-18T10:41:07.442Z,27.93
2018-09-18T10:43:36.638Z,28.01
2018-09-18T10:46:05.908Z,28.11
2018-09-18T10:48:40.103Z,28.18
2018-09-18T10:51:09.075Z,28.25
2018-09-18T10:53:39.514Z,28.30
2018-09-18T10:56:08.771Z,28.36
2018-09-18T10:58:37.965Z,28.41
2018-09-18T11:01:07.353Z,28.47
2018-09-18T11:03:36.728Z,28.50
2018-09-18T11:06:06.712Z,28.54
2018-09-18T11:08:36.415Z,28.59
2018-09-18T11:11:06.762Z,28.62
2018-09-18T11:13:36.228Z,28.66
2018-09-18T11:16:05.737Z,28.68
2018-09-18T11:18:34.954Z,28.71
2018-09-18T11:21:04.117Z,28.73
2018-09-18T11:23:33.452Z,28.77
2018-09-18T11:26:02.922Z,28.79
2018-09-18T11:28:31.832Z,28.84
2018-09-18T11:31:01.375Z,28.88
2018-09-18T11:33:30.506Z,28.90
2018-09-18T11:35:59.640Z,28.92
2018-09-18T11:38:28.799Z,28.95
2018-09-18T11:40:58.193Z,28.98
2018-09-18T11:43:27.407Z,29.03
2018-09-18T11:45:57.232Z,29.09
2018-09-18T11:48:26.203Z,29.11
2018-09-18T11:50:55.217Z,29.12
2018-09-18T11:53:24.332Z,29.13
2018-09-18T11:55:53.739Z,29.15
2018-09-18T11:58:22.786Z,29.16
2018-09-18T12:00:52.086Z,29.18
2018-09-18T12:03:21.231Z,29.23
2018-09-18T12:05:50.631Z,29.25
2018-09-18T12:08:20.022Z,29.27
2018-09-18T12:10:49.370Z,29.29
2018-09-18T12:13:18.448Z,29.30
2018-09-18T12:15:47.634Z,29.31
2018-09-18T12:18:16.880Z,29.33
2018-09-18T12:20:46.666Z,29.34
2018-09-18T12:23:16.493Z,29.39
2018-09-18T12:25:46.055Z,29.41
2018-09-18T12:28:15.407Z,29.42
2018-09-18T12:30:44.567Z,29.44
2018-09-18T12:33:13.682Z,29.43
2018-09-18T12:35:42.843Z,29.44
2018-09-18T12:38:12.226Z,29.47
2018-09-18T12:40:41.376Z,29.51
2018-09-18T12:43:10.520Z,29.55
2018-09-18T12:45:39.823Z,29.58
2018-09-18T12:48:08.989Z,29.62
2018-09-18T12:50:38.106Z,29.63
2018-09-18T12:53:07.590Z,29.65
2018-09-18T12:55:36.681Z,29.66
2018-09-18T12:58:06.033Z,29.67
2018-09-18T13:00:35.340Z,29.67
2018-09-18T13:03:04.620Z,29.68
2018-09-18T13:05:33.934Z,29.71
2018-09-18T13:08:03.176Z,29.72
2018-09-18T13:10:32.686Z,29.75
2018-09-18T13:13:01.781Z,29.78
2018-09-18T13:15:31.261Z,29.80
2018-09-18T13:18:00.458Z,29.80
2018-09-18T13:20:29.660Z,29.82
2018-09-18T13:22:58.617Z,29.83
2018-09-18T13:25:27.879Z,29.85
2018-09-18T13:27:57.293Z,29.86
2018-09-18T13:30:26.614Z,29.89
2018-09-18T13:32:55.898Z,29.88
2018-09-18T13:35:25.164Z,29.90
2018-09-18T13:37:54.419Z,29.91
2018-09-18T13:40:23.732Z,29.94
2018-09-18T13:42:52.899Z,29.94
2018-09-18T13:45:22.055Z,29.93
2018-09-18T13:47:51.263Z,29.96
2018-09-18T13:50:20.443Z,29.98
2018-09-18T13:52:49.854Z,30.00
2018-09-18T13:55:18.984Z,30.01
2018-09-18T13:57:49.137Z,30.01
2018-09-18T14:00:18.109Z,30.01
2018-09-18T14:02:47.956Z,30.02
2018-09-18T14:05:17.152Z,30.00
2018-09-18T14:07:46.143Z,29.97
2018-09-18T14:10:16.719Z,29.96
2018-09-18T14:12:45.769Z,29.96
2018-09-18T14:15:14.922Z,29.96
2018-09-18T14:17:44.130Z,29.94
2018-09-18T14:20:13.112Z,29.95
2018-09-18T14:22:42.777Z,29.97
2018-09-18T14:25:11.743Z,29.98
2018-09-18T14:27:40.980Z,30.00
2018-09-18T14:30:10.097Z,30.01
2018-09-18T14:32:39.501Z,30.02
2018-09-18T14:35:08.678Z,30.02
2018-09-18T14:37:37.740Z,30.04
2018-09-18T14:40:07.206Z,30.05
2018-09-18T14:42:36.299Z,30.07
2018-09-18T14:45:05.866Z,30.08
2018-09-18T14:47:35.464Z,30.09
2018-09-18T14:50:05.204Z,30.09
2018-09-18T14:52:34.258Z,30.08
2018-09-18T14:55:03.349Z,30.07
2018-09-18T14:57:32.450Z,30.05
2018-09-18T15:00:01.998Z,30.04
2018-09-18T15:02:31.262Z,29.99
2018-09-18T15:05:00.533Z,29.95
2018-09-18T15:07:29.874Z,29.90
2018-09-18T15:09:58.851Z,29.86
2018-09-18T15:12:27.955Z,29.82
2018-09-18T15:14:58.404Z,29.82
2018-09-18T15:17:27.475Z,29.78
2018-09-18T15:19:57.369Z,29.74
2018-09-18T15:22:26.292Z,29.69
2018-09-18T15:24:55.593Z,29.64
2018-09-18T15:27:24.772Z,29.59
2018-09-18T15:29:54.152Z,29.54
2018-09-18T15:32:24.137Z,29.47
2018-09-18T15:34:54.052Z,29.42
2018-09-18T15:37:23.462Z,29.32
2018-09-18T15:39:52.547Z,29.23
2018-09-18T15:42:22.573Z,29.11
2018-09-18T15:44:51.661Z,29.01
2018-09-18T15:47:20.615Z,28.91
2018-09-18T15:49:50.007Z,28.80
2018-09-18T15:52:19.244Z,28.65
2018-09-18T15:54:48.320Z,28.57
2018-09-18T15:57:17.439Z,28.47
2018-09-18T15:59:46.608Z,28.35
2018-09-18T16:02:15.684Z,28.27
2018-09-18T16:04:44.749Z,28.17
2018-09-18T16:07:14.131Z,28.10
2018-09-18T16:09:43.217Z,28.01
2018-09-18T16:12:12.444Z,27.95
2018-09-18T16:14:41.770Z,27.88
2018-09-18T16:17:11.230Z,27.81
2018-09-18T16:19:40.638Z,27.74
2018-09-18T16:22:09.641Z,27.68
2018-09-18T16:24:38.562Z,27.62
2018-09-18T16:27:07.694Z,27.56
2018-09-18T16:29:36.910Z,27.49
2018-09-18T16:32:06.231Z,27.42
2018-09-18T16:34:35.200Z,27.35
2018-09-18T16:37:04.188Z,27.29
2018-09-18T16:39:33.191Z,27.24
2018-09-18T16:42:02.188Z,27.18
2018-09-18T16:44:31.440Z,27.15
2018-09-18T16:47:00.594Z,27.10
2018-09-18T16:49:29.959Z,27.04
2018-09-18T16:51:59.415Z,26.97
2018-09-18T16:54:28.670Z,26.92
2018-09-18T16:56:57.719Z,26.85
2018-09-18T16:59:27.013Z,26.79
2018-09-18T17:01:56.618Z,26.73
2018-09-18T17:04:26.080Z,26.67
2018-09-18T17:06:55.487Z,26.61
2018-09-18T17:09:24.573Z,26.56
2018-09-18T17:11:53.548Z,26.51
2018-09-18T17:14:23.119Z,26.44
2018-09-18T17:16:52.338Z,26.40
2018-09-18T17:19:21.497Z,26.34
2018-09-18T17:21:50.871Z,26.28
2018-09-18T17:24:20.349Z,26.23
2018-09-18T17:26:49.940Z,26.17
2018-09-18T17:29:19.224Z,26.11
2018-09-18T17:31:48.641Z,26.06
2018-09-18T17:34:17.758Z,26.01
2018-09-18T17:36:47.283Z,25.95
2018-09-18T17:39:17.186Z,25.90
2018-09-18T17:41:46.470Z,25.86
2018-09-18T17:44:22.218Z,25.81
2018-09-18T17:46:51.225Z,25.75
2018-09-18T17:49:20.556Z,25.71
2018-09-18T17:51:49.800Z,25.66
2018-09-18T17:54:18.763Z,25.62
2018-09-18T17:56:48.420Z,25.58
2018-09-18T17:59:17.699Z,25.50
2018-09-18T18:01:46.846Z,25.47
2018-09-18T18:04:16.867Z,25.44
2018-09-18T18:06:46.219Z,25.38
2018-09-18T18:09:15.542Z,25.34
2018-09-18T18:11:44.731Z,25.30
2018-09-18T18:14:14.289Z,25.26
2018-09-18T18:16:43.747Z,25.23
2018-09-18T18:19:12.999Z,25.19
2018-09-18T18:21:42.547Z,25.14
2018-09-18T18:24:11.675Z,25.10
2018-09-18T18:26:41.084Z,25.06
2018-09-18T18:29:11.274Z,25.02
2018-09-18T18:31:40.732Z,24.99
2018-09-18T18:34:10.764Z,24.96
2018-09-18T18:36:39.894Z,24.92
2018-09-18T18:39:09.940Z,24.88
2018-09-18T18:41:39.473Z,24.85
2018-09-18T18:44:08.865Z,24.80
2018-09-18T18:46:44.314Z,24.77
2018-09-18T18:49:13.469Z,24.74
2018-09-18T18:51:42.981Z,24.70
2018-09-18T18:54:12.302Z,24.66
2018-09-18T18:56:41.455Z,24.63
2018-09-18T18:59:10.731Z,24.61
2018-09-18T19:01:40.065Z,24.57
2018-09-18T19:04:09.195Z,24.54
2018-09-18T19:06:38.183Z,24.49
2018-09-18T19:09:08.141Z,24.47
2018-09-18T19:11:37.355Z,24.44
2018-09-18T19:14:06.667Z,24.42
2018-09-18T19:16:36.628Z,24.38
2018-09-18T19:19:06.106Z,24.37
2018-09-18T19:21:35.877Z,24.34
2018-09-18T19:24:05.037Z,24.30
2018-09-18T19:26:34.305Z,24.27
2018-09-18T19:29:04.209Z,24.24
2018-09-18T19:31:33.458Z,24.22
2018-09-18T19:34:02.777Z,24.20
2018-09-18T19:36:31.993Z,24.17
2018-09-18T19:39:01.278Z,24.15
2018-09-18T19:41:30.538Z,24.10
2018-09-18T19:44:02.868Z,24.08
2018-09-18T19:46:32.131Z,24.06
2018-09-18T19:49:01.226Z,23.97
2018-09-18T19:51:30.383Z,23.99
2018-09-18T19:53:59.530Z,24.00
2018-09-18T19:56:29.713Z,23.97
2018-09-18T19:58:58.663Z,23.95
2018-09-18T20:01:27.942Z,23.92
2018-09-18T20:03:57.478Z,23.90
2018-09-18T20:06:26.913Z,23.86
2018-09-18T20:08:55.960Z,23.85
2018-09-18T20:11:24.993Z,23.82
2018-09-18T20:13:54.132Z,23.80
2018-09-18T20:16:23.293Z,23.77
2018-09-18T20:18:52.665Z,23.74
2018-09-18T20:21:22.083Z,23.72
2018-09-18T20:23:51.384Z,23.70
2018-09-18T20:26:21.411Z,23.67
2018-09-18T20:28:51.130Z,23.66
2018-09-18T20:31:20.510Z,23.64
2018-09-18T20:33:49.639Z,23.62
2018-09-18T20:36:18.918Z,23.59
2018-09-18T20:38:48.096Z,23.57
2018-09-18T20:41:17.430Z,23.55
2018-09-18T20:43:46.569Z,23.52
2018-09-18T20:46:16.752Z,23.50
2018-09-18T20:48:46.113Z,23.47
2018-09-18T20:51:15.332Z,23.45
2018-09-18T20:53:44.611Z,23.43
2018-09-18T20:56:13.861Z,23.41
2018-09-18T20:58:43.026Z,23.39
2018-09-18T21:01:12.416Z,23.36
2018-09-18T21:03:41.408Z,23.34
2018-09-18T21:06:16.981Z,23.30
2018-09-18T21:08:46.176Z,23.27
2018-09-18T21:11:15.785Z,23.24
2018-09-18T21:13:45.281Z,23.20
2018-09-18T21:16:14.557Z,23.17
2018-09-18T21:18:43.860Z,23.15
2018-09-18T21:21:13.396Z,23.12
2018-09-18T21:23:43.111Z,23.10
2018-09-18T21:26:15.791Z,23.07
2018-09-18T21:28:44.798Z,23.03
2018-09-18T21:31:13.959Z,23.02
2018-09-18T21:33:43.080Z,22.99
2018-09-18T21:36:12.590Z,22.98
2018-09-18T21:38:42.208Z,22.96
2018-09-18T21:41:11.599Z,22.93
2018-09-18T21:43:40.810Z,22.91
2018-09-18T21:46:10.671Z,22.86
2018-09-18T21:48:40.363Z,22.86
2018-09-18T21:51:10.294Z,22.84
2018-09-18T21:53:40.127Z,22.83
2018-09-18T21:56:09.273Z,22.81
2018-09-18T21:58:38.379Z,22.82
2018-09-18T22:01:07.789Z,22.82
2018-09-18T22:03:37.703Z,22.80
2018-09-18T22:06:06.874Z,22.79
2018-09-18T22:08:36.735Z,22.77
2018-09-18T22:11:06.075Z,22.75
2018-09-18T22:13:35.224Z,22.73
2018-09-18T22:16:04.453Z,22.70
2018-09-18T22:18:33.648Z,22.68
2018-09-18T22:21:02.843Z,22.65
2018-09-18T22:23:32.303Z,22.61
2018-09-18T22:26:01.448Z,22.59
2018-09-18T22:28:30.544Z,22.56
2018-09-18T22:30:59.843Z,22.54
2018-09-18T22:33:29.040Z,22.53
2018-09-18T22:35:59.508Z,22.51
2018-09-18T22:38:30.567Z,22.50
2018-09-18T22:40:59.733Z,22.48
2018-09-18T22:43:28.959Z,22.47
2018-09-18T22:45:58.372Z,22.46
2018-09-18T22:48:27.593Z,22.44
2018-09-18T22:50:57.799Z,22.43
2018-09-18T22:53:27.570Z,22.42
2018-09-18T22:55:56.665Z,22.41
2018-09-18T22:58:27.102Z,22.38
2018-09-18T23:00:56.317Z,22.36
2018-09-18T23:03:25.359Z,22.35
2018-09-18T23:05:55.111Z,22.33
2018-09-18T23:08:24.480Z,22.31
2018-09-18T23:10:54.710Z,22.29
2018-09-18T23:13:23.851Z,22.28
2018-09-18T23:15:53.182Z,22.26
2018-09-18T23:18:22.837Z,22.25
2018-09-18T23:20:52.196Z,22.26
2018-09-18T23:23:21.516Z,22.27
2018-09-18T23:25:51.944Z,22.26
2018-09-18T23:28:21.067Z,22.26
2018-09-18T23:30:50.851Z,22.27
2018-09-18T23:33:20.036Z,22.27
2018-09-18T23:35:49.401Z,22.21
2018-09-18T23:38:18.676Z,22.26
2018-09-18T23:40:49.241Z,22.24
2018-09-18T23:43:18.435Z,22.24
2018-09-18T23:45:47.514Z,22.22
2018-09-18T23:48:16.735Z,22.22
2018-09-18T23:50:45.712Z,22.22
2018-09-18T23:53:14.686Z,22.21
2018-09-18T23:55:44.471Z,22.20
2018-09-18T23:58:13.439Z,22.19
